Kissho — JD3124 — position and weather

sailwx.info

Track history (hours):
 
Tides and Currents Weather Stations Pressure Air Temp Water Temp Dewpoint Dewpoint Depression Visibility Wind Speed Wind Dir Waves Ship Positions

Kissho

Last reported at 2017-Aug-16 08:23 UTC. Time now 2017-Aug-24 03:04 UTC.
Position N 34°39' E 135°26'.

Length 30 m.

Type: Tug. MMSI: 431002115.

Date/timePositionNaut miles runAvg speedWind from/ knotsBaromVisibWave heightAir tempDewpointWater temp
2017-Aug-16 08:23N 34°39' E 135°26'4 9.9
2017-Aug-16 08:00N 34°40' E 135°22'1 2.5
2017-Aug-16 07:29N 34°41' E 135°21'0 0.7
2017-Aug-16 06:58N 34°41' E 135°21'0 0.5
2017-Aug-16 06:28N 34°41' E 135°21'0 0.3
2017-Aug-16 06:00N 34°41' E 135°21'0 0.8
2017-Aug-16 05:24N 34°41' E 135°21'0 0.3
2017-Aug-16 05:00N 34°41' E 135°21'1 1.3
2017-Aug-16 04:30N 34°41' E 135°20'0 0.5
2017-Aug-16 03:43N 34°41' E 135°21'0 1.4
2017-Aug-16 03:26N 34°41' E 135°20'0 0.0
2017-Aug-16 02:52N 34°41' E 135°20'0 0.0
2017-Aug-16 02:26N 34°41' E 135°20'0 1.0
2017-Aug-16 01:57N 34°41' E 135°21'0 0.3
2017-Aug-16 01:29N 34°41' E 135°21'0 0.0
2017-Aug-16 00:59N 34°41' E 135°21'1 1.5
2017-Aug-16 00:24N 34°41' E 135°19'0 0.5
2017-Aug-15 23:50N 34°41' E 135°20'1 3.9
2017-Aug-15 23:30N 34°41' E 135°21'  
2017-Aug-13 08:26N 34°39' E 135°26'4 9.8
2017-Aug-13 08:00N 34°38' E 135°21'610.5
2017-Aug-13 07:26N 34°36' E 135°14'410.2
2017-Aug-13 07:00N 34°36' E 135°08'  
Track history (hours):
 
Tides and Currents Weather Stations Pressure Air Temp Water Temp Dewpoint Dewpoint Depression Visibility Wind Speed Wind Dir Waves Ship Positions

Kissho

Last reported at 2017-Aug-16 08:23 UTC. Time now 2017-Aug-24 03:04 UTC.
Position N 34°39' E 135°26'.

Length 30 m.

Type: Tug. MMSI: 431002115.

Date/timePositionNaut miles runAvg speedWind from/ knotsBaromVisibWave heightAir tempDewpointWater temp
2017-Aug-16 08:23N 34°39' E 135°26'4 9.9
2017-Aug-16 08:00N 34°40' E 135°22'1 2.5
2017-Aug-16 07:29N 34°41' E 135°21'0 0.7
2017-Aug-16 06:58N 34°41' E 135°21'0 0.5
2017-Aug-16 06:28N 34°41' E 135°21'0 0.3
2017-Aug-16 06:00N 34°41' E 135°21'0 0.8
2017-Aug-16 05:24N 34°41' E 135°21'0 0.3
2017-Aug-16 05:00N 34°41' E 135°21'1 1.3
2017-Aug-16 04:30N 34°41' E 135°20'0 0.5
2017-Aug-16 03:43N 34°41' E 135°21'0 1.4
2017-Aug-16 03:26N 34°41' E 135°20'0 0.0
2017-Aug-16 02:52N 34°41' E 135°20'0 0.0
2017-Aug-16 02:26N 34°41' E 135°20'0 1.0
2017-Aug-16 01:57N 34°41' E 135°21'0 0.3
2017-Aug-16 01:29N 34°41' E 135°21'0 0.0
2017-Aug-16 00:59N 34°41' E 135°21'1 1.5
2017-Aug-16 00:24N 34°41' E 135°19'0 0.5
2017-Aug-15 23:50N 34°41' E 135°20'1 3.9
2017-Aug-15 23:30N 34°41' E 135°21'  
2017-Aug-13 08:26N 34°39' E 135°26'4 9.8
2017-Aug-13 08:00N 34°38' E 135°21'610.5
2017-Aug-13 07:26N 34°36' E 135°14'410.2
2017-Aug-13 07:00N 34°36' E 135°08'  

Dump ship's entire track history